createdAt,value
2019-04-05T00:00:40.601Z,37.57
2019-04-05T00:03:11.143Z,39.77
2019-04-05T00:05:41.724Z,36.40
2019-04-05T00:08:12.252Z,35.37
2019-04-05T00:10:42.735Z,37.00
2019-04-05T00:13:13.228Z,43.03
2019-04-05T00:15:43.756Z,37.37
2019-04-05T00:18:14.489Z,36.67
2019-04-05T00:20:44.985Z,41.23
2019-04-05T00:23:15.501Z,33.57
2019-04-05T00:25:46.269Z,35.53
2019-04-05T00:28:16.813Z,34.93
2019-04-05T00:30:47.446Z,43.10
2019-04-05T00:33:18.019Z,36.73
2019-04-05T00:35:49.999Z,40.60
2019-04-05T00:38:20.567Z,39.43
2019-04-05T00:40:51.081Z,39.53
2019-04-05T00:43:21.778Z,39.17
2019-04-05T00:45:52.396Z,37.03
2019-04-05T00:48:22.912Z,36.17
2019-04-05T00:50:53.630Z,35.90
2019-04-05T00:53:24.191Z,38.97
2019-04-05T00:55:55.045Z,41.43
2019-04-05T00:58:27.637Z,41.13
2019-04-05T01:00:58.359Z,40.00
2019-04-05T01:03:28.942Z,36.63
2019-04-05T01:05:59.587Z,39.27
2019-04-05T01:08:30.172Z,39.10
2019-04-05T01:11:00.871Z,39.03
2019-04-05T01:13:31.479Z,43.13
2019-04-05T01:16:02.004Z,39.43
2019-04-05T01:18:32.569Z,35.10
2019-04-05T01:21:04.646Z,42.00
2019-04-05T01:23:36.306Z,41.10
2019-04-05T01:26:07.503Z,38.27
2019-04-05T01:28:38.380Z,36.60
2019-04-05T01:31:08.845Z,41.87
2019-04-05T01:33:39.737Z,35.83
2019-04-05T01:36:10.620Z,34.67
2019-04-05T01:38:41.170Z,39.97
2019-04-05T01:41:11.901Z,35.53
2019-04-05T01:43:42.385Z,46.30
2019-04-05T01:46:13.050Z,34.90
2019-04-05T01:48:43.898Z,35.37
2019-04-05T01:51:14.730Z,44.90
2019-04-05T01:53:45.210Z,37.73
2019-04-05T01:56:15.952Z,39.37
2019-04-05T01:58:46.557Z,42.23
2019-04-05T02:01:17.464Z,40.30
2019-04-05T02:03:47.954Z,43.13
2019-04-05T02:06:18.601Z,42.50
2019-04-05T02:08:49.414Z,40.07
2019-04-05T02:11:19.957Z,44.83
2019-04-05T02:13:50.600Z,38.33
2019-04-05T02:16:21.152Z,41.17
2019-04-05T02:18:51.734Z,50.67
2019-04-05T02:21:22.567Z,42.43
2019-04-05T02:23:53.077Z,40.63
2019-04-05T02:26:23.524Z,39.53
2019-04-05T02:28:54.086Z,49.17
2019-04-05T02:31:26.105Z,39.00
2019-04-05T02:33:56.753Z,44.67
2019-04-05T02:36:27.470Z,42.40
2019-04-05T02:39:00.156Z,48.80
2019-04-05T02:41:32.181Z,43.90
2019-04-05T02:44:05.506Z,43.43
2019-04-05T02:46:36.287Z,45.67
2019-04-05T02:49:07.396Z,46.00
2019-04-05T02:51:40.278Z,45.40
2019-04-05T02:54:11.953Z,44.67
2019-04-05T02:56:43.697Z,53.50
2019-04-05T02:59:16.370Z,45.40
2019-04-05T03:01:47.266Z,47.07
2019-04-05T03:04:17.756Z,44.03
2019-04-05T03:06:50.050Z,41.33
2019-04-05T03:09:21.026Z,44.37
2019-04-05T03:11:52.634Z,44.77
2019-04-05T03:14:23.522Z,43.33
2019-04-05T03:16:56.178Z,51.33
2019-04-05T03:19:30.009Z,48.93
2019-04-05T03:22:06.095Z,44.47
2019-04-05T03:24:39.526Z,43.07
2019-04-05T03:27:18.954Z,42.47
2019-04-05T03:29:49.565Z,46.07
2019-04-05T03:32:20.473Z,48.90
2019-04-05T03:34:51.187Z,42.90
2019-04-05T03:37:22.491Z,45.10
2019-04-05T03:39:55.754Z,45.27
2019-04-05T03:42:27.127Z,46.43
2019-04-05T03:44:57.815Z,49.77
2019-04-05T03:47:28.361Z,44.60
2019-04-05T03:49:59.252Z,41.43
2019-04-05T03:52:29.919Z,47.87
2019-04-05T03:55:01.450Z,43.40
2019-04-05T03:57:31.921Z,45.57
2019-04-05T04:00:02.592Z,48.77
2019-04-05T04:02:33.373Z,42.73
2019-04-05T04:05:04.237Z,39.50
2019-04-05T04:07:34.867Z,46.13
2019-04-05T04:10:05.978Z,42.50
2019-04-05T04:12:37.517Z,45.40
2019-04-05T04:15:15.545Z,41.27
2019-04-05T04:17:46.453Z,46.80
2019-04-05T04:20:37.715Z,46.27
2019-04-05T04:23:09.996Z,46.30
2019-04-05T04:25:41.439Z,46.37
2019-04-05T04:28:12.570Z,48.13
2019-04-05T04:30:43.215Z,43.57
2019-04-05T04:33:14.462Z,49.83
2019-04-05T04:35:45.261Z,47.47
2019-04-05T04:38:16.036Z,45.23
2019-04-05T04:40:47.201Z,40.00
2019-04-05T04:43:18.119Z,43.97
2019-04-05T04:45:48.968Z,43.07
2019-04-05T04:48:19.538Z,40.67
2019-04-05T04:50:50.938Z,37.50
2019-04-05T04:53:21.635Z,38.90
2019-04-05T04:55:55.289Z,45.60
2019-04-05T04:58:26.782Z,37.13
2019-04-05T05:00:57.892Z,35.80
2019-04-05T05:03:28.708Z,40.70
2019-04-05T05:05:59.399Z,46.53
2019-04-05T05:08:30.136Z,41.63
2019-04-05T05:11:13.649Z,39.63
2019-04-05T05:13:33.580Z,40.63
2019-04-05T05:16:04.622Z,36.80
2019-04-05T05:18:35.316Z,35.13
2019-04-05T05:21:06.541Z,33.83
2019-04-05T05:23:37.718Z,44.57
2019-04-05T05:26:08.296Z,43.30
2019-04-05T05:28:38.856Z,37.33
2019-04-05T05:31:09.769Z,44.47
2019-04-05T05:33:40.337Z,35.20
2019-04-05T05:36:10.914Z,34.37
2019-04-05T05:38:41.487Z,36.90
2019-04-05T05:41:12.163Z,35.23
2019-04-05T05:43:42.664Z,36.27
2019-04-05T05:46:14.208Z,34.07
2019-04-05T05:48:45.742Z,31.83
2019-04-05T05:51:16.384Z,31.17
2019-04-05T05:53:47.090Z,35.80
2019-04-05T05:56:17.732Z,34.37
2019-04-05T05:58:50.489Z,32.83
2019-04-05T06:01:21.008Z,27.27
2019-04-05T06:03:51.482Z,31.17
2019-04-05T06:06:21.968Z,34.57
2019-04-05T06:08:52.443Z,30.17
2019-04-05T06:11:22.988Z,34.23
2019-04-05T06:13:53.512Z,31.27
2019-04-05T06:16:25.062Z,25.97
2019-04-05T06:18:55.605Z,37.83
2019-04-05T06:21:26.080Z,29.50
2019-04-05T06:23:56.599Z,30.97
2019-04-05T06:26:27.061Z,24.47
2019-04-05T06:28:57.645Z,40.83
2019-04-05T06:31:28.104Z,32.50
2019-04-05T06:33:58.728Z,27.57
2019-04-05T06:36:29.239Z,29.27
2019-04-05T06:38:59.817Z,33.40
2019-04-05T06:41:30.293Z,30.10
2019-04-05T06:44:00.982Z,31.37
2019-04-05T06:46:31.618Z,32.53
2019-04-05T06:49:02.272Z,35.83
2019-04-05T06:51:32.773Z,29.03
2019-04-05T06:54:03.524Z,30.80
2019-04-05T06:56:34.037Z,27.57
2019-04-05T06:59:04.981Z,30.67
2019-04-05T07:01:35.475Z,29.93
2019-04-05T07:04:06.058Z,26.47
2019-04-05T07:06:37.583Z,24.00
2019-04-05T07:09:08.167Z,33.43
2019-04-05T07:11:38.762Z,30.07
2019-04-05T07:14:09.242Z,28.93
2019-04-05T07:16:39.729Z,29.47
2019-04-05T07:19:10.201Z,26.40
2019-04-05T07:21:40.681Z,29.97
2019-04-05T07:24:11.518Z,36.13
2019-04-05T07:26:42.024Z,25.40
2019-04-05T07:29:12.597Z,27.97
2019-04-05T07:31:43.103Z,26.33
2019-04-05T07:34:13.608Z,23.53
2019-04-05T07:36:44.119Z,27.83
2019-04-05T07:39:14.614Z,25.27
2019-04-05T07:41:45.146Z,27.80
2019-04-05T07:44:15.737Z,24.43
2019-04-05T07:46:46.666Z,25.37
2019-04-05T07:49:17.301Z,28.43
2019-04-05T07:51:47.912Z,24.57
2019-04-05T07:54:18.539Z,22.63
2019-04-05T07:56:49.159Z,25.67
2019-04-05T07:59:21.008Z,25.70
2019-04-05T08:01:51.729Z,29.33
2019-04-05T08:04:22.295Z,25.63
2019-04-05T08:06:53.940Z,32.87
2019-04-05T08:09:26.951Z,27.63
2019-04-05T08:11:58.051Z,23.40
2019-04-05T08:14:29.491Z,22.87
2019-04-05T08:17:00.052Z,25.50
2019-04-05T08:19:30.639Z,29.50
2019-04-05T08:22:01.172Z,29.93
2019-04-05T08:24:32.759Z,20.73
2019-04-05T08:27:03.267Z,22.57
2019-04-05T08:29:33.789Z,21.20
2019-04-05T08:32:13.905Z,18.37
2019-04-05T08:34:36.517Z,20.60
2019-04-05T08:37:06.996Z,21.23
2019-04-05T08:39:37.564Z,21.97
2019-04-05T08:42:10.656Z,19.73
2019-04-05T08:44:40.172Z,15.57
2019-04-05T08:47:10.753Z,17.20
2019-04-05T08:49:41.395Z,19.13
2019-04-05T08:52:11.865Z,15.87
2019-04-05T08:54:42.465Z,18.07
2019-04-05T08:57:12.949Z,20.20
2019-04-05T08:59:43.495Z,17.40
2019-04-05T09:02:14.056Z,16.57
2019-04-05T09:04:44.593Z,20.27
2019-04-05T09:07:15.278Z,23.20
2019-04-05T09:09:45.875Z,17.90
2019-04-05T09:12:16.363Z,18.30
2019-04-05T09:14:46.913Z,17.03
2019-04-05T09:17:17.433Z,21.20
2019-04-05T09:19:47.997Z,17.17
2019-04-05T09:22:18.499Z,16.10
2019-04-05T09:24:49.075Z,17.57
2019-04-05T09:27:19.631Z,16.60
2019-04-05T09:29:50.165Z,17.77
2019-04-05T09:32:20.840Z,15.97
2019-04-05T09:34:51.325Z,14.57
2019-04-05T09:37:21.985Z,22.23
2019-04-05T09:39:52.473Z,17.27
2019-04-05T09:42:23.073Z,18.80
2019-04-05T09:44:53.676Z,21.87
2019-04-05T09:47:24.153Z,17.43
2019-04-05T09:49:54.684Z,18.83
2019-04-05T09:52:25.209Z,18.13
2019-04-05T09:54:55.751Z,25.50
2019-04-05T09:57:27.312Z,16.70
2019-04-05T09:59:57.886Z,18.07
2019-04-05T10:02:31.610Z,17.70
2019-04-05T10:05:00.692Z,26.17
2019-04-05T10:07:31.304Z,18.13
2019-04-05T10:10:01.874Z,17.80
2019-04-05T10:12:33.692Z,21.60
2019-04-05T10:15:04.671Z,18.30
2019-04-05T10:17:35.278Z,19.33
2019-04-05T10:20:06.879Z,15.70
2019-04-05T10:22:37.451Z,20.23
2019-04-05T10:25:08.315Z,21.43
2019-04-05T10:27:38.866Z,17.00
2019-04-05T10:30:12.487Z,15.57
2019-04-05T10:32:45.943Z,13.07
2019-04-05T10:35:15.393Z,20.97
2019-04-05T10:37:45.869Z,14.97
2019-04-05T10:40:16.783Z,21.60
2019-04-05T10:42:47.427Z,21.33
2019-04-05T10:45:18.734Z,16.20
2019-04-05T10:47:49.707Z,19.90
2019-04-05T10:50:20.777Z,16.93
2019-04-05T10:52:51.537Z,17.47
2019-04-05T10:55:22.369Z,22.07
2019-04-05T10:57:52.846Z,16.07
2019-04-05T11:00:23.963Z,15.20
2019-04-05T11:02:54.537Z,20.73
2019-04-05T11:05:25.150Z,18.07
2019-04-05T11:07:55.744Z,16.20
2019-04-05T11:10:26.361Z,17.83
2019-04-05T11:12:56.903Z,22.10
2019-04-05T11:15:28.766Z,18.93
2019-04-05T11:18:04.321Z,21.63
2019-04-05T11:20:33.587Z,21.23
2019-04-05T11:23:04.055Z,19.73
2019-04-05T11:25:34.564Z,18.03
2019-04-05T11:28:05.155Z,21.77
2019-04-05T11:30:45.555Z,20.30
2019-04-05T11:33:19.420Z,22.27
2019-04-05T11:35:48.669Z,22.07
2019-04-05T11:38:19.801Z,16.80
2019-04-05T11:40:50.522Z,18.93
2019-04-05T11:43:26.158Z,20.97
2019-04-05T11:45:55.910Z,22.33
2019-04-05T11:48:28.289Z,19.00
2019-04-05T11:50:58.916Z,18.83
2019-04-05T11:53:29.434Z,18.17
2019-04-05T11:56:13.499Z,27.13
2019-04-05T11:58:32.587Z,28.20
2019-04-05T12:01:23.470Z,20.17
2019-04-05T12:03:53.734Z,26.53
2019-04-05T12:06:24.229Z,18.50
2019-04-05T12:08:54.805Z,19.50
2019-04-05T12:11:25.386Z,20.50
2019-04-05T12:13:56.088Z,25.53
2019-04-05T12:16:27.167Z,18.87
2019-04-05T12:18:59.085Z,21.50
2019-04-05T12:21:29.836Z,17.50
2019-04-05T12:24:00.482Z,18.10
2019-04-05T12:26:34.518Z,19.00
2019-04-05T12:29:05.136Z,20.03
2019-04-05T12:31:35.717Z,15.07
2019-04-05T12:34:06.223Z,22.97
2019-04-05T12:36:36.812Z,18.93
2019-04-05T12:39:08.893Z,20.67
2019-04-05T12:41:40.861Z,18.83
2019-04-05T12:44:14.161Z,15.30
2019-04-05T12:46:45.867Z,14.50
2019-04-05T12:49:15.875Z,17.80
2019-04-05T12:51:46.519Z,14.27
2019-04-05T12:54:17.099Z,15.13
2019-04-05T12:56:47.740Z,15.97
2019-04-05T12:59:18.216Z,17.50
2019-04-05T13:01:48.705Z,14.60
2019-04-05T13:04:20.667Z,17.20
2019-04-05T13:06:52.934Z,15.33
2019-04-05T13:09:24.681Z,14.00
2019-04-05T13:11:57.322Z,14.93
2019-04-05T13:14:27.524Z,12.07
2019-04-05T13:17:01.668Z,13.17
2019-04-05T13:19:30.613Z,15.23
2019-04-05T13:22:02.810Z,14.87
2019-04-05T13:24:34.151Z,13.83
2019-04-05T13:27:05.060Z,12.60
2019-04-05T13:29:35.667Z,15.67
2019-04-05T13:32:06.241Z,10.53
2019-04-05T13:34:36.816Z,13.83
2019-04-05T13:37:19.300Z,14.13
2019-04-05T13:39:39.390Z,11.77
2019-04-05T13:42:09.983Z,18.07
2019-04-05T13:44:40.456Z,14.67
2019-04-05T13:47:11.079Z,13.13
2019-04-05T13:49:43.833Z,10.27
2019-04-05T13:52:15.356Z,15.33
2019-04-05T13:54:45.803Z,10.93
2019-04-05T13:57:16.340Z,10.93
2019-04-05T13:59:46.868Z,13.60
2019-04-05T14:02:20.537Z,11.63
2019-04-05T14:04:49.537Z,14.70
2019-04-05T14:07:23.446Z,14.50
2019-04-05T14:09:52.206Z,13.30
2019-04-05T14:12:22.884Z,12.93
2019-04-05T14:14:53.438Z,10.30
2019-04-05T14:17:23.906Z,13.60
2019-04-05T14:19:54.656Z,12.93
2019-04-05T14:22:25.123Z,10.80
2019-04-05T14:24:56.815Z,12.20
2019-04-05T14:27:27.278Z,12.17
2019-04-05T14:29:57.712Z,14.23
2019-04-05T14:32:28.201Z,12.50
2019-04-05T14:34:58.764Z,10.83
2019-04-05T14:37:29.328Z,13.10
2019-04-05T14:39:59.846Z,14.80
2019-04-05T14:42:32.019Z,14.37
2019-04-05T14:45:02.794Z,15.30
2019-04-05T14:47:33.425Z,17.70
2019-04-05T14:50:03.976Z,13.10
2019-04-05T14:52:34.699Z,18.87
2019-04-05T14:55:06.031Z,12.00
2019-04-05T14:57:36.770Z,12.17
2019-04-05T15:00:08.525Z,16.87
2019-04-05T15:02:40.102Z,13.50
2019-04-05T15:05:10.978Z,14.57
2019-04-05T15:07:41.513Z,19.77
2019-04-05T15:10:12.144Z,13.60
2019-04-05T15:12:43.017Z,16.87
2019-04-05T15:15:14.124Z,13.53
2019-04-05T15:17:48.290Z,14.53
2019-04-05T15:20:17.067Z,14.63
2019-04-05T15:22:47.588Z,17.77
2019-04-05T15:25:21.532Z,13.77
2019-04-05T15:27:55.152Z,11.13
2019-04-05T15:30:25.703Z,11.67
2019-04-05T15:32:57.779Z,11.63
2019-04-05T15:35:28.254Z,14.17
2019-04-05T15:38:01.575Z,14.47
2019-04-05T15:40:31.700Z,12.43
2019-04-05T15:43:02.285Z,12.20
2019-04-05T15:45:33.246Z,11.70
2019-04-05T15:48:03.726Z,12.87
2019-04-05T15:50:34.279Z,12.80
2019-04-05T15:53:04.754Z,14.77
2019-04-05T15:55:35.342Z,15.27
2019-04-05T15:58:06.958Z,16.33
2019-04-05T16:00:45.202Z,16.77
2019-04-05T16:03:16.172Z,13.33
2019-04-05T16:05:47.061Z,15.73
2019-04-05T16:08:19.121Z,17.23
2019-04-05T16:10:49.762Z,12.30
2019-04-05T16:13:20.288Z,23.80
2019-04-05T16:15:50.778Z,23.30
2019-04-05T16:18:21.432Z,22.33
2019-04-05T16:20:51.924Z,19.33
2019-04-05T16:23:22.610Z,19.23
2019-04-05T16:25:53.103Z,16.83
2019-04-05T16:28:23.688Z,20.07
2019-04-05T16:30:54.301Z,16.93
2019-04-05T16:33:24.870Z,17.10
2019-04-05T16:35:55.290Z,21.27
2019-04-05T16:38:25.912Z,19.23
2019-04-05T16:40:56.416Z,28.33
2019-04-05T16:43:27.021Z,27.37
2019-04-05T16:45:57.520Z,29.73
2019-04-05T16:48:28.057Z,21.13
2019-04-05T16:50:58.636Z,24.03
2019-04-05T16:53:29.319Z,20.63
2019-04-05T16:55:59.807Z,19.63
2019-04-05T16:58:30.379Z,23.27
2019-04-05T17:01:02.080Z,17.30
2019-04-05T17:03:32.628Z,18.63
2019-04-05T17:06:03.132Z,12.07
2019-04-05T17:08:33.730Z,15.17
2019-04-05T17:11:05.612Z,15.60
2019-04-05T17:13:36.245Z,16.50
2019-04-05T17:16:06.869Z,12.27
2019-04-05T17:18:37.414Z,20.03
2019-04-05T17:21:08.031Z,15.80
2019-04-05T17:23:38.600Z,14.70
2019-04-05T17:26:09.316Z,13.03
2019-04-05T17:28:39.886Z,14.83
2019-04-05T17:31:10.476Z,18.30
2019-04-05T17:33:41.029Z,13.30
2019-04-05T17:36:12.658Z,13.60
2019-04-05T17:38:43.185Z,13.10
2019-04-05T17:41:13.637Z,12.13
2019-04-05T17:43:44.243Z,16.37
2019-04-05T17:46:15.685Z,15.60
2019-04-05T17:48:46.214Z,22.07
2019-04-05T17:51:16.763Z,25.37
2019-04-05T17:53:47.341Z,29.80
2019-04-05T17:56:17.898Z,20.90
2019-04-05T17:58:49.861Z,20.27
2019-04-05T18:01:20.410Z,27.43
2019-04-05T18:03:51.159Z,25.00
2019-04-05T18:06:21.720Z,28.70
2019-04-05T18:08:52.272Z,26.43
2019-04-05T18:11:24.322Z,33.60
2019-04-05T18:13:54.824Z,22.97
2019-04-05T18:16:25.354Z,26.07
2019-04-05T18:18:56.785Z,26.70
2019-04-05T18:21:29.412Z,28.43
2019-04-05T18:23:59.986Z,26.87
2019-04-05T18:26:30.543Z,72.87
2019-04-05T18:29:01.720Z,55.77
2019-04-05T18:31:33.733Z,29.83
2019-04-05T18:34:05.425Z,31.77
2019-04-05T18:36:36.001Z,31.73
2019-04-05T18:39:08.250Z,35.60
2019-04-05T18:41:39.047Z,35.00
2019-04-05T18:44:11.236Z,28.37
2019-04-05T18:46:43.976Z,34.43
2019-04-05T18:49:16.756Z,33.90
2019-04-05T18:51:47.359Z,27.00
2019-04-05T18:54:18.056Z,30.37
2019-04-05T18:56:49.051Z,33.67
2019-04-05T18:59:19.708Z,23.13
2019-04-05T19:01:50.287Z,27.77
2019-04-05T19:04:20.787Z,28.80
2019-04-05T19:06:51.317Z,27.30
2019-04-05T19:09:23.629Z,31.07
2019-04-05T19:11:54.218Z,26.73
2019-04-05T19:14:24.787Z,23.37
2019-04-05T19:16:55.343Z,38.97
2019-04-05T19:19:25.948Z,69.70
2019-04-05T19:21:57.700Z,83.50
2019-04-05T19:24:28.218Z,50.57
2019-04-05T19:26:58.912Z,53.70
2019-04-05T19:29:29.639Z,53.97
2019-04-05T19:49:50.373Z,44.77
2019-04-05T19:52:20.942Z,45.77
2019-04-05T19:54:51.508Z,41.07
2019-04-05T19:57:22.217Z,26.57
2019-04-05T19:59:52.709Z,31.93
2019-04-05T20:02:23.301Z,27.97
2019-04-05T20:04:53.959Z,32.60
2019-04-05T20:07:24.587Z,32.23
2019-04-05T20:09:55.477Z,36.50
2019-04-05T20:12:26.074Z,38.87
2019-04-05T20:14:57.011Z,33.13
2019-04-05T20:17:27.664Z,33.63
2019-04-05T20:19:58.316Z,35.63
2019-04-05T20:22:28.804Z,32.37
2019-04-05T20:24:59.440Z,28.90
2019-04-05T20:27:29.947Z,26.07
2019-04-05T20:30:00.558Z,24.73
2019-04-05T20:32:31.115Z,23.83
2019-04-05T20:35:01.683Z,22.67
2019-04-05T20:37:32.304Z,27.87
2019-04-05T20:40:02.747Z,26.60
2019-04-05T20:42:34.505Z,23.53
2019-04-05T20:45:06.187Z,25.47
2019-04-05T20:47:36.929Z,26.60
2019-04-05T20:50:08.218Z,25.13
2019-04-05T20:52:38.873Z,26.97
2019-04-05T20:55:09.645Z,26.43
2019-04-05T20:57:40.251Z,27.53
2019-04-05T21:00:13.029Z,24.67
2019-04-05T21:02:43.600Z,25.43
2019-04-05T21:05:20.636Z,24.43
2019-04-05T21:07:46.573Z,24.20
2019-04-05T21:10:18.882Z,28.10
2019-04-05T21:12:49.495Z,23.97
2019-04-05T21:15:20.086Z,26.97
2019-04-05T21:17:50.734Z,23.93
2019-04-05T21:20:21.221Z,27.93
2019-04-05T21:22:52.329Z,27.40
2019-04-05T21:25:23.040Z,27.73
2019-04-05T21:27:55.908Z,26.67
2019-04-05T21:30:26.509Z,26.80
2019-04-05T21:32:57.052Z,29.03
2019-04-05T21:35:27.559Z,29.73
2019-04-05T21:37:58.081Z,28.93
2019-04-05T21:40:28.667Z,32.67
2019-04-05T21:42:59.259Z,32.73
2019-04-05T21:45:30.440Z,31.13
2019-04-05T21:48:00.983Z,30.77
2019-04-05T21:50:31.603Z,30.33
2019-04-05T21:53:03.502Z,31.73
2019-04-05T21:55:34.169Z,29.70
2019-04-05T21:58:04.772Z,34.27
2019-04-05T22:00:44.149Z,31.57
2019-04-05T22:03:15.726Z,36.93
2019-04-05T22:05:46.331Z,35.93
2019-04-05T22:08:16.842Z,34.40
2019-04-05T22:10:48.417Z,32.47
2019-04-05T22:13:19.075Z,34.57
2019-04-05T22:15:49.837Z,36.60
2019-04-05T22:18:20.488Z,39.43
2019-04-05T22:20:51.302Z,43.60
2019-04-05T22:23:21.817Z,40.23
2019-04-05T22:25:52.293Z,33.90
2019-04-05T22:28:22.783Z,40.23
2019-04-05T22:30:54.327Z,43.27
2019-04-05T22:33:24.821Z,45.27
2019-04-05T22:35:55.303Z,45.03
2019-04-05T22:38:25.789Z,44.80
2019-04-05T22:40:56.351Z,50.60
2019-04-05T22:43:28.527Z,47.70
2019-04-05T22:45:59.137Z,44.63
2019-04-05T22:48:29.702Z,51.90
2019-04-05T22:51:00.312Z,50.33
2019-04-05T22:53:30.885Z,42.80
2019-04-05T22:56:01.510Z,43.83
2019-04-05T22:58:32.115Z,39.83
2019-04-05T23:01:02.637Z,51.07
2019-04-05T23:03:33.200Z,46.20
2019-04-05T23:06:03.695Z,40.83
2019-04-05T23:08:34.317Z,40.93
2019-04-05T23:11:04.805Z,42.33
2019-04-05T23:13:35.427Z,40.77
2019-04-05T23:16:05.878Z,45.53
2019-04-05T23:18:36.409Z,38.57
2019-04-05T23:21:06.928Z,39.97
2019-04-05T23:23:37.559Z,40.40
2019-04-05T23:26:08.150Z,42.33
2019-04-05T23:28:38.654Z,39.37
2019-04-05T23:31:09.212Z,36.63
2019-04-05T23:33:39.679Z,42.03
2019-04-05T23:36:10.217Z,38.93
2019-04-05T23:38:40.693Z,40.73
2019-04-05T23:41:11.279Z,40.73
2019-04-05T23:43:41.719Z,43.47
2019-04-05T23:46:12.252Z,43.33
2019-04-05T23:48:43.799Z,43.47
2019-04-05T23:51:14.446Z,37.50
2019-04-05T23:53:44.977Z,44.27
2019-04-05T23:56:15.588Z,41.13
2019-04-05T23:58:46.079Z,44.63
